Estación Meteorológica Peña el Pijo (Robertgarden) [ 11/20/18 01:16:07 CET ]

Fecha Hora Presion(HPa) Temp (°C) Humedad % Rocio (°C) Viento ( m/s) Direccion Lluvia 1Hora(mm) Lluvia 24H(mm) LLuvia Total(mm)
2018-Jan-28 01:01:42 1014.600 1.3 74 -2.9         62.16
2018-Jan-28 02:01:46 1014.300 0.8 79 -2.5         62.16
2018-Jan-28 03:07:02 1014.000 0.6 81 -2.3         62.16
2018-Jan-28 04:01:48 1013.800 0.5 83 -2.1         62.16
2018-Jan-28 05:01:39 1013.400 0.5 84 -1.9         62.16
2018-Jan-28 06:01:55 1013.500 0.5 85 -1.8         62.16
2018-Jan-28 07:01:56 1013.800 0.5 85 -1.8         62.16
2018-Jan-28 08:01:48 1014.100 0.5 86 -1.6         62.16
2018-Jan-28 11:31:42 1017.500 2.6 86 0.5         62.16
2018-Jan-28 12:31:52 1018.100 4.9 84 2.4 3.2 NNE 0.51 0.51 62.67
2018-Jan-28 13:01:49 1018.400 5.4 82 2.5       0.51 62.67
2018-Jan-28 14:01:48 1018.400 6.1 72 1.4 1.4 N   0.51 62.67
2018-Jan-28 15:01:57 1017.500 6.4 68 0.9       0.51 62.67
2018-Jan-28 16:01:49 1018.400 7.3 65 1.1       0.51 62.67
2018-Jan-28 17:02:02 1018.700 5.5 69 0.3       0.51 62.67
2018-Jan-28 18:01:53 1019.400 5.1 72 0.5       0.51 62.67
2018-Jan-28 19:01:39 1020.100 4.7 77 1.0       0.51 62.67
2018-Jan-28 20:01:48 1020.600 3.8 79 0.5       0.51 62.67
2018-Jan-28 21:01:48 1020.800 3.2 81 0.3       0.51 62.67
2018-Jan-28 22:02:06 1021.200 4.1 82 1.3       0.51 62.67
2018-Jan-28 20:31:49 1021.100 4.4 82 1.6       0.51 62.67
2018-Jan-28 22:31:42 1021.100 4.1 82 1.3       0.51 62.67
2018-Jan-28 23:01:48 1021.200 3.9 82 1.1       0.51 62.67

Temperatura Máxima:    Temperatura Mínima:
Presión Máxima:1021.200 Hpa    Presión Mínima:1013.400 Hpa


Volver